North Platte Regional Airport Lee Bird Field
KLBF : now visible

Airfield :











YOU CAN JOIN US ON...

 
LOGIN :

Register | Disclaimer

   EN    FR    IT 

 









Legend :    VFR   Marginal VFR   IFR   Intensive IFR   Very Intensive IFR
Visi :
Ceiling :
>= 8 km
>= 3000ft
5 to 8 km
1000 to 3000 ft
1500m to 5 km
500 to 1000 ft
800 to 1500m
200 to 500 ft
< 800m
< 200 ft
Symbols :   Thunderstorms  Fog  Heavy snow  Heavy precipitations  Wind > 20 kt






- Airport Elevation : 2777 ft
- IATA code : LBF


KLBF - North Platte Regional Lee Bird Field

CURRENT METAR :
  • 100153Z AUTO 11008KT 10SM CLR 26/19 A2999 RMK AO2 SLP130 T02560189

EXPIRED METARs :
  • 100053Z AUTO 12010KT 10SM CLR 28/19 A2998 RMK AO2 SLP124 T02830189
  • 092353Z AUTO 11012KT 10SM CLR 29/18 A2997 RMK AO2 SLP123 T02940183 10317 20294 53003

TAF KLBF
Valid from the 10 at 00:00 until the 11 at 00:00 UTC


092341Z 1000/1024 11011KT P6SM SCT250
FM100300 12005KT P6SM SCT250
FM101500 17008KT P6SM SCT080
FM102000 18013G20KT P6SM FEW250
KZDV FIR / North America



MET'MAP, your aeronautical weather chart ! - Copyright ORBIFLY December 2007 - Disclaimer

ORBIFLY MET'MAP TEAM :

Programming & Development : Alexandra Zaïnal
Concept & original design : Baudouin d'Aumeries
Assistance for programming : Marc-Olivier Méhu
Technical & hardware support : Manuel Goepfert

Contact : metmap@orbifly.com




SOURCES & CREDITS :

   NOAA       Earth
Advisory